Briesen Brand Airport EDUC

Flugplatz Daten

Name: Briesen Brand Airport

Ident: EDUC

Lat: 52,03279877

Long: 13,74919987

Platzhöhe: 230 ft

IataCode:

City:

Metar

2021/10/14 07:00
AYPY 140700Z VRB03KT 3000M SCT010 OVC050 24/24 Q1008 RMK/VIS REDUCED IN SHRA

Taf

Gewünschte Webcam nicht vorhanden? Dann fügen Sie eine hinzu. Sie wird dann so schnell wie möglich freigeschaltet
Url: Title: